createdAt,value
2018-11-22T00:02:15.381Z,7.47
2018-11-22T00:04:45.489Z,7.47
2018-11-22T00:07:15.245Z,7.47
2018-11-22T00:09:45.033Z,7.48
2018-11-22T00:12:14.834Z,7.47
2018-11-22T00:14:44.644Z,7.46
2018-11-22T00:17:14.942Z,7.46
2018-11-22T00:19:44.781Z,7.46
2018-11-22T00:22:14.687Z,7.46
2018-11-22T00:24:44.423Z,7.45
2018-11-22T00:27:14.620Z,7.44
2018-11-22T00:29:44.538Z,7.44
2018-11-22T00:32:14.298Z,7.45
2018-11-22T00:34:44.172Z,7.44
2018-11-22T00:37:14.381Z,7.44
2018-11-22T00:39:43.996Z,7.43
2018-11-22T00:42:13.903Z,7.43
2018-11-22T00:44:43.415Z,7.44
2018-11-22T00:47:13.331Z,7.45
2018-11-22T00:49:43.628Z,7.46
2018-11-22T00:52:13.569Z,7.46
2018-11-22T00:54:43.966Z,7.45
2018-11-22T00:57:13.904Z,7.45
2018-11-22T00:59:43.493Z,7.46
2018-11-22T01:02:13.671Z,7.47
2018-11-22T01:04:43.503Z,7.47
2018-11-22T01:07:13.092Z,7.47
2018-11-22T01:09:42.698Z,7.49
2018-11-22T01:12:12.579Z,7.48
2018-11-22T01:14:42.409Z,7.47
2018-11-22T01:17:12.548Z,7.48
2018-11-22T01:19:42.267Z,7.48
2018-11-22T01:22:11.833Z,7.47
2018-11-22T01:24:41.986Z,7.48
2018-11-22T01:27:11.564Z,7.49
2018-11-22T01:29:41.349Z,7.48
2018-11-22T01:32:12.010Z,7.50
2018-11-22T01:34:41.836Z,7.51
2018-11-22T01:37:12.237Z,7.51
2018-11-22T01:39:41.735Z,7.51
2018-11-22T01:42:11.562Z,7.50
2018-11-22T01:44:41.657Z,7.51
2018-11-22T01:47:11.784Z,7.51
2018-11-22T01:49:41.600Z,7.51
2018-11-22T01:52:11.520Z,7.52
2018-11-22T01:54:41.770Z,7.52
2018-11-22T01:57:12.461Z,7.52
2018-11-22T01:59:42.410Z,7.52
2018-11-22T02:02:12.310Z,7.51
2018-11-22T02:04:42.288Z,7.49
2018-11-22T02:07:12.126Z,7.50
2018-11-22T02:09:42.237Z,7.51
2018-11-22T02:12:11.916Z,7.50
2018-11-22T02:14:42.065Z,7.50
2018-11-22T02:17:12.597Z,7.50
2018-11-22T02:19:42.727Z,7.51
2018-11-22T02:22:13.062Z,7.50
2018-11-22T02:24:43.252Z,7.51
2018-11-22T02:27:13.109Z,7.50
2018-11-22T02:29:42.886Z,7.50
2018-11-22T02:32:12.801Z,7.49
2018-11-22T02:34:42.605Z,7.48
2018-11-22T02:37:13.026Z,7.47
2018-11-22T02:39:42.957Z,7.47
2018-11-22T02:42:13.086Z,7.49
2018-11-22T02:44:43.227Z,7.47
2018-11-22T02:47:13.444Z,7.48
2018-11-22T02:49:43.123Z,7.47
2018-11-22T02:52:13.095Z,7.47
2018-11-22T02:54:43.256Z,7.47
2018-11-22T02:57:13.450Z,7.47
2018-11-22T02:59:43.490Z,7.46
2018-11-22T03:02:13.455Z,7.47
2018-11-22T03:04:43.574Z,7.49
2018-11-22T03:07:13.441Z,7.47
2018-11-22T03:09:43.915Z,7.44
2018-11-22T03:12:13.484Z,7.45
2018-11-22T03:14:43.320Z,7.45
2018-11-22T03:17:13.205Z,7.44
2018-11-22T03:19:43.049Z,7.43
2018-11-22T03:22:12.827Z,7.42
2018-11-22T03:24:42.308Z,7.42
2018-11-22T03:27:12.048Z,7.41
2018-11-22T03:29:42.532Z,7.43
2018-11-22T03:32:12.677Z,7.43
2018-11-22T03:34:42.600Z,7.44
2018-11-22T03:37:12.714Z,7.44
2018-11-22T03:39:42.678Z,7.45
2018-11-22T03:42:13.069Z,7.44
2018-11-22T03:44:42.983Z,7.46
2018-11-22T03:47:12.884Z,7.46
2018-11-22T03:49:43.553Z,7.45
2018-11-22T03:52:14.678Z,7.43
2018-11-22T03:54:44.797Z,7.46
2018-11-22T03:57:14.405Z,7.46
2018-11-22T03:59:44.246Z,7.46
2018-11-22T04:02:14.970Z,7.46
2018-11-22T04:04:44.592Z,7.46
2018-11-22T04:07:14.184Z,7.46
2018-11-22T04:09:44.111Z,7.45
2018-11-22T04:12:14.298Z,7.45
2018-11-22T04:14:44.193Z,7.45
2018-11-22T04:17:13.675Z,7.46
2018-11-22T04:19:43.815Z,7.44
2018-11-22T04:22:14.836Z,7.43
2018-11-22T04:24:44.457Z,7.42
2018-11-22T04:27:15.012Z,7.42
2018-11-22T04:29:45.112Z,7.41
2018-11-22T04:32:14.985Z,7.41
2018-11-22T04:34:45.189Z,7.41
2018-11-22T04:37:15.131Z,7.41
2018-11-22T04:39:46.004Z,7.39
2018-11-22T04:42:15.492Z,7.41
2018-11-22T04:44:45.312Z,7.39
2018-11-22T04:47:15.492Z,7.40
2018-11-22T04:49:45.455Z,7.40
2018-11-22T04:52:15.684Z,7.40
2018-11-22T04:54:46.758Z,7.41
2018-11-22T04:57:16.667Z,7.41
2018-11-22T04:59:46.568Z,7.40
2018-11-22T05:02:16.690Z,7.38
2018-11-22T05:04:46.589Z,7.38
2018-11-22T05:07:17.712Z,7.38
2018-11-22T05:09:47.311Z,7.39
2018-11-22T05:12:17.425Z,7.42
2018-11-22T05:14:47.331Z,7.44
2018-11-22T05:17:17.771Z,7.43
2018-11-22T05:19:47.967Z,7.43
2018-11-22T05:22:18.799Z,7.42
2018-11-22T05:24:48.986Z,7.43
2018-11-22T05:27:19.804Z,7.41
2018-11-22T05:29:50.038Z,7.41
2018-11-22T05:32:20.248Z,7.42
2018-11-22T05:34:50.794Z,7.42
2018-11-22T05:37:21.024Z,7.41
2018-11-22T05:39:50.797Z,7.40
2018-11-22T05:42:20.980Z,7.38
2018-11-22T05:44:51.159Z,7.38
2018-11-22T05:47:21.139Z,7.38
2018-11-22T05:49:50.735Z,7.37
2018-11-22T05:52:20.674Z,7.36
2018-11-22T05:54:50.777Z,7.35
2018-11-22T05:57:20.853Z,7.33
2018-11-22T05:59:51.229Z,7.32
2018-11-22T06:02:21.193Z,7.28
2018-11-22T06:04:50.965Z,7.28
2018-11-22T06:07:20.474Z,7.26
2018-11-22T06:09:50.299Z,7.25
2018-11-22T06:12:20.278Z,7.24
2018-11-22T06:14:49.791Z,7.21
2018-11-22T06:17:19.665Z,7.19
2018-11-22T06:19:50.396Z,7.18
2018-11-22T06:22:20.279Z,7.19
2018-11-22T06:24:51.271Z,7.18
2018-11-22T06:27:21.116Z,7.19
2018-11-22T06:29:51.250Z,7.19
2018-11-22T06:32:21.237Z,7.19
2018-11-22T06:34:51.908Z,7.18
2018-11-22T06:37:21.562Z,7.19
2018-11-22T06:39:51.341Z,7.20
2018-11-22T06:42:21.223Z,7.22
2018-11-22T06:44:51.393Z,7.23
2018-11-22T06:47:20.877Z,7.21
2018-11-22T06:49:50.715Z,7.21
2018-11-22T06:52:20.954Z,7.21
2018-11-22T06:54:50.782Z,7.24
2018-11-22T06:57:20.797Z,7.25
2018-11-22T06:59:51.071Z,7.26
2018-11-22T07:02:21.327Z,7.28
2018-11-22T07:04:51.775Z,7.28
2018-11-22T07:07:21.372Z,7.28
2018-11-22T07:09:50.985Z,7.28
2018-11-22T07:12:20.929Z,7.30
2018-11-22T07:14:51.283Z,7.29
2018-11-22T07:17:21.576Z,7.29
2018-11-22T07:19:51.581Z,7.29
2018-11-22T07:22:21.749Z,7.31
2018-11-22T07:24:51.324Z,7.33
2018-11-22T07:27:21.139Z,7.34
2018-11-22T07:29:50.611Z,7.37
2018-11-22T07:32:20.898Z,7.38
2018-11-22T07:34:51.033Z,7.37
2018-11-22T07:37:20.819Z,7.38
2018-11-22T07:39:50.733Z,7.35
2018-11-22T07:42:20.303Z,7.37
2018-11-22T07:44:50.427Z,7.39
2018-11-22T07:47:20.544Z,7.40
2018-11-22T07:49:50.455Z,7.40
2018-11-22T07:52:20.461Z,7.42
2018-11-22T07:54:50.282Z,7.46
2018-11-22T07:57:20.200Z,7.46
2018-11-22T07:59:50.025Z,7.46
2018-11-22T08:02:20.548Z,7.49
2018-11-22T08:04:50.555Z,7.50
2018-11-22T08:07:20.141Z,7.52
2018-11-22T08:09:50.897Z,7.54
2018-11-22T08:12:25.790Z,7.57
2018-11-22T08:14:50.757Z,7.59
2018-11-22T08:17:21.495Z,7.61
2018-11-22T08:19:51.393Z,7.64
2018-11-22T08:22:21.678Z,7.65
2018-11-22T08:24:52.670Z,7.67
2018-11-22T08:27:22.635Z,7.70
2018-11-22T08:29:53.122Z,7.70
2018-11-22T08:32:22.633Z,7.75
2018-11-22T08:34:52.912Z,7.79
2018-11-22T08:37:22.814Z,7.81
2018-11-22T08:39:53.322Z,7.83
2018-11-22T08:42:23.463Z,7.85
2018-11-22T08:44:53.689Z,7.85
2018-11-22T08:47:23.796Z,7.87
2018-11-22T08:49:53.621Z,7.89
2018-11-22T08:52:23.212Z,7.89
2018-11-22T08:54:53.177Z,7.92
2018-11-22T08:57:24.295Z,7.94
2018-11-22T08:59:55.011Z,7.95
2018-11-22T09:02:25.137Z,7.98
2018-11-22T09:04:55.355Z,8.01
2018-11-22T09:07:25.999Z,8.04
2018-11-22T09:09:56.669Z,8.07
2018-11-22T09:12:26.741Z,8.10
2018-11-22T09:14:56.218Z,8.13
2018-11-22T09:17:26.369Z,8.13
2018-11-22T09:19:56.211Z,8.14
2018-11-22T09:22:26.163Z,8.13
2018-11-22T09:24:56.400Z,8.15
2018-11-22T09:27:26.677Z,8.17
2018-11-22T09:29:56.746Z,8.16
2018-11-22T09:32:27.064Z,8.16
2018-11-22T09:34:57.079Z,8.15
2018-11-22T09:37:27.387Z,8.16
2018-11-22T09:39:56.881Z,8.11
2018-11-22T09:42:26.534Z,8.11
2018-11-22T09:44:56.893Z,8.14
2018-11-22T09:47:26.953Z,8.16
2018-11-22T09:49:56.791Z,8.17
2018-11-22T09:52:27.269Z,8.20
2018-11-22T09:54:57.479Z,8.23
2018-11-22T09:57:27.385Z,8.25
2018-11-22T09:59:57.185Z,8.25
2018-11-22T10:02:27.270Z,8.28
2018-11-22T10:04:58.094Z,8.29
2018-11-22T10:07:28.146Z,8.22
2018-11-22T10:09:58.101Z,8.27
2018-11-22T10:12:28.223Z,8.29
2018-11-22T10:14:57.865Z,8.32
2018-11-22T10:17:28.232Z,8.30
2018-11-22T10:19:58.681Z,8.30
2018-11-22T10:22:29.550Z,8.34
2018-11-22T10:24:59.475Z,8.35
2018-11-22T10:27:30.377Z,8.37
2018-11-22T10:30:04.554Z,8.40
2018-11-22T10:32:34.331Z,8.43
2018-11-22T10:35:04.653Z,8.45
2018-11-22T10:37:34.778Z,8.48
2018-11-22T10:40:05.461Z,8.49
2018-11-22T10:42:35.545Z,8.53
2018-11-22T10:45:06.507Z,8.55
2018-11-22T10:47:36.469Z,8.57
2018-11-22T10:50:07.639Z,8.62
2018-11-22T10:52:37.650Z,8.67
2018-11-22T10:55:10.355Z,8.71
2018-11-22T10:57:41.740Z,8.77
2018-11-22T11:00:33.734Z,8.84
2018-11-22T11:03:21.109Z,8.87
2018-11-22T11:06:08.425Z,8.91
2018-11-22T11:08:38.268Z,8.99
2018-11-22T11:11:08.211Z,9.01
2018-11-22T11:13:38.132Z,9.02
2018-11-22T11:16:08.501Z,9.00
2018-11-22T11:18:38.907Z,8.98
2018-11-22T11:21:08.508Z,8.94
2018-11-22T12:16:40.515Z,9.01
2018-11-22T12:19:08.884Z,9.01
2018-11-22T12:21:37.061Z,9.05
2018-11-22T12:24:05.730Z,9.11
2018-11-22T12:26:33.921Z,9.11
2018-11-22T12:29:02.090Z,9.15
2018-11-22T12:31:30.269Z,9.18
2018-11-22T12:34:03.828Z,9.21
2018-11-22T12:37:39.177Z,9.26
2018-11-22T12:40:07.485Z,9.25
2018-11-22T12:42:35.648Z,9.29
2018-11-22T12:45:04.666Z,9.28
2018-11-22T12:47:33.540Z,9.28
2018-11-22T12:50:02.462Z,9.27
2018-11-22T12:52:30.607Z,9.27
2018-11-22T12:54:58.983Z,9.26
2018-11-22T12:57:27.503Z,9.27
2018-11-22T12:59:56.156Z,9.24
2018-11-22T13:02:24.565Z,9.25
2018-11-22T13:04:53.128Z,9.24
2018-11-22T13:07:21.302Z,9.23
2018-11-22T13:09:49.891Z,9.19
2018-11-22T13:12:18.117Z,9.17
2018-11-22T13:14:46.372Z,9.15
2018-11-22T13:17:14.521Z,9.16
2018-11-22T13:19:42.693Z,9.15
2018-11-22T13:22:10.892Z,9.08
2018-11-22T13:24:39.387Z,9.08
2018-11-22T13:27:07.613Z,9.06
2018-11-22T13:29:35.785Z,9.09
2018-11-22T13:32:03.969Z,9.10
2018-11-22T13:34:32.672Z,9.13
2018-11-22T13:37:00.928Z,9.16
2018-11-22T13:39:29.103Z,9.18
2018-11-22T13:41:57.253Z,9.22
2018-11-22T13:44:25.424Z,9.25
2018-11-22T13:46:53.599Z,9.27
2018-11-22T13:49:21.829Z,9.29
2018-11-22T13:51:50.036Z,9.26
2018-11-22T13:54:18.233Z,9.27
2018-11-22T13:56:46.395Z,9.29
2018-11-22T13:59:15.168Z,9.30
2018-11-22T14:01:43.328Z,9.33
2018-11-22T14:04:11.537Z,9.34
2018-11-22T14:06:39.688Z,9.39
2018-11-22T14:09:09.520Z,9.43
2018-11-22T14:11:37.697Z,9.49
2018-11-22T14:14:06.222Z,9.57
2018-11-22T14:16:34.395Z,9.63
2018-11-22T14:19:03.148Z,9.67
2018-11-22T14:21:31.319Z,9.68
2018-11-22T14:24:00.165Z,9.70
2018-11-22T14:26:28.338Z,9.70
2018-11-22T14:28:56.519Z,9.71
2018-11-22T14:31:24.943Z,9.71
2018-11-22T14:33:53.497Z,9.69
2018-11-22T14:36:21.733Z,9.66
2018-11-22T14:38:49.914Z,9.66
2018-11-22T14:41:18.071Z,9.64
2018-11-22T14:43:46.939Z,9.65
2018-11-22T14:46:15.138Z,9.66
2018-11-22T14:48:43.312Z,9.65
2018-11-22T14:51:15.923Z,9.66
2018-11-22T14:53:44.398Z,9.65
2018-11-22T14:56:12.595Z,9.64
2018-11-22T14:58:40.832Z,9.63
2018-11-22T15:01:09.038Z,9.59
2018-11-22T15:03:37.223Z,9.58
2018-11-22T15:06:05.656Z,9.56
2018-11-22T15:08:33.852Z,9.55
2018-11-22T15:11:02.025Z,9.53
2018-11-22T15:13:30.200Z,9.52
2018-11-22T15:15:58.396Z,9.51
2018-11-22T15:18:27.196Z,9.47
2018-11-22T15:21:01.120Z,9.45
2018-11-22T15:23:23.592Z,9.42
2018-11-22T15:25:51.731Z,9.39
2018-11-22T15:28:20.296Z,9.32
2018-11-22T15:30:48.443Z,9.26
2018-11-22T15:33:16.656Z,9.15
2018-11-22T15:35:44.859Z,9.09
2018-11-22T15:38:13.072Z,9.04
2018-11-22T15:40:41.873Z,9.01
2018-11-22T15:43:10.044Z,8.97
2018-11-22T15:45:38.228Z,8.93
2018-11-22T15:48:06.420Z,8.90
2018-11-22T15:50:34.950Z,8.84
2018-11-22T15:53:03.104Z,8.80
2018-11-22T15:55:31.293Z,8.72
2018-11-22T15:58:00.431Z,8.70
2018-11-22T16:00:32.113Z,8.66
2018-11-22T16:03:00.857Z,8.59
2018-11-22T16:05:29.436Z,8.56
2018-11-22T16:07:57.633Z,8.54
2018-11-22T16:30:34.562Z,8.23
2018-11-22T16:33:02.890Z,8.20
2018-11-22T16:35:33.552Z,8.17
2018-11-22T16:38:00.372Z,8.14
2018-11-22T16:40:29.442Z,8.13
2018-11-22T16:42:59.082Z,8.06
2018-11-22T16:45:30.630Z,8.02
2018-11-22T16:48:00.076Z,7.97
2018-11-22T16:50:29.514Z,7.96
2018-11-22T16:52:57.862Z,7.94
2018-11-22T16:55:26.882Z,7.91
2018-11-22T16:57:56.212Z,7.90
2018-11-22T17:00:33.639Z,7.88
2018-11-22T17:03:03.388Z,7.85
2018-11-22T17:05:31.732Z,7.84
2018-11-22T17:08:00.650Z,7.84
2018-11-22T17:10:30.084Z,7.83
2018-11-22T17:12:59.535Z,7.83
2018-11-22T17:15:29.382Z,7.80
2018-11-22T17:17:58.151Z,7.79
2018-11-22T17:20:27.271Z,7.78
2018-11-22T17:22:55.799Z,7.74
2018-11-22T17:25:25.333Z,7.75
2018-11-22T17:27:57.094Z,7.72
2018-11-22T17:30:27.860Z,7.70
2018-11-22T17:33:00.438Z,7.69
2018-11-22T17:35:29.370Z,7.68
2018-11-22T17:37:59.512Z,7.65
2018-11-22T17:40:38.010Z,7.65
2018-11-22T17:43:06.973Z,7.61
2018-11-22T17:45:37.679Z,7.59
2018-11-22T17:48:06.508Z,7.54
2018-11-22T17:50:36.561Z,7.54
2018-11-22T17:53:05.346Z,7.55
2018-11-22T17:55:34.162Z,7.48
2018-11-22T17:58:02.502Z,7.47
2018-11-22T18:00:32.326Z,7.47
2018-11-22T18:03:01.657Z,7.46
2018-11-22T18:05:29.898Z,7.45
2018-11-22T18:07:58.154Z,7.44
2018-11-22T18:10:27.916Z,7.42
2018-11-22T18:12:56.581Z,7.41
2018-11-22T18:15:25.879Z,7.40
2018-11-22T18:17:54.750Z,7.41
2018-11-22T18:20:27.442Z,7.39
2018-11-22T18:22:56.830Z,7.37
2018-11-22T18:25:27.622Z,7.36
2018-11-22T18:27:56.862Z,7.33
2018-11-22T18:30:27.528Z,7.31
2018-11-22T18:32:57.014Z,7.29
2018-11-22T18:35:25.291Z,7.25
2018-11-22T18:37:53.659Z,7.23
2018-11-22T18:40:24.110Z,7.22
2018-11-22T18:42:53.456Z,7.20
2018-11-22T18:45:27.115Z,7.18
2018-11-22T18:47:55.704Z,7.18
2018-11-22T18:50:25.100Z,7.15
2018-11-22T18:52:53.501Z,7.14
2018-11-22T18:55:21.945Z,7.12
2018-11-22T18:57:50.535Z,7.11
2018-11-22T19:00:22.269Z,7.10
2018-11-22T19:02:50.967Z,7.06
2018-11-22T19:05:19.691Z,7.09
2018-11-22T19:07:49.124Z,7.08
2018-11-22T19:10:36.630Z,7.06
2018-11-22T19:13:06.399Z,7.03
2018-11-22T19:15:36.718Z,7.00
2018-11-22T19:18:05.510Z,6.97
2018-11-22T19:20:35.315Z,6.94
2018-11-22T19:23:04.511Z,6.92
2018-11-22T19:25:32.767Z,6.90
2018-11-22T19:28:01.980Z,6.85
2018-11-22T19:30:37.078Z,6.84
2018-11-22T19:33:01.415Z,6.82
2018-11-22T19:35:31.733Z,6.79
2018-11-22T19:38:00.826Z,6.77
2018-11-22T19:40:30.440Z,6.74
2018-11-22T19:43:00.149Z,6.72
2018-11-22T19:45:29.949Z,6.71
2018-11-22T19:47:58.226Z,6.69
2018-11-22T19:50:27.526Z,6.70
2018-11-22T19:52:56.521Z,6.68
2018-11-22T19:55:27.390Z,6.67
2018-11-22T19:57:58.390Z,6.68
2018-11-22T20:00:27.281Z,6.67
2018-11-22T20:02:57.311Z,6.65
2018-11-22T20:05:26.400Z,6.62
2018-11-22T20:07:56.226Z,6.61
2018-11-22T20:10:27.023Z,6.59
2018-11-22T20:12:55.361Z,6.59
2018-11-22T20:15:23.699Z,6.55
2018-11-22T20:17:52.648Z,6.54
2018-11-22T20:20:21.579Z,6.53
2018-11-22T20:22:50.023Z,6.53
2018-11-22T20:25:18.295Z,6.51
2018-11-22T20:27:46.554Z,6.52
2018-11-22T20:30:17.021Z,6.52
2018-11-22T20:32:45.630Z,6.52
2018-11-22T20:35:15.570Z,6.50
2018-11-22T20:37:44.627Z,6.50
2018-11-22T20:40:14.258Z,6.50
2018-11-22T20:42:42.714Z,6.51
2018-11-22T20:45:12.930Z,6.50
2018-11-22T20:47:41.940Z,6.54
2018-11-22T20:50:12.628Z,6.58
2018-11-22T20:52:40.990Z,6.60
2018-11-22T20:55:13.646Z,6.62
2018-11-22T20:57:41.946Z,6.65
2018-11-22T21:00:13.550Z,6.67
2018-11-22T21:02:41.851Z,6.68
2018-11-22T21:05:11.117Z,6.68
2018-11-22T21:07:39.630Z,6.66
2018-11-22T21:10:10.226Z,6.65
2018-11-22T21:12:39.026Z,6.64
2018-11-22T21:15:11.406Z,6.63
2018-11-22T21:17:39.904Z,6.62
2018-11-22T21:20:09.403Z,6.59
2018-11-22T21:22:37.855Z,6.56
2018-11-22T21:25:07.973Z,6.53
2018-11-22T21:27:36.326Z,6.51
2018-11-22T21:30:07.537Z,6.48
2018-11-22T21:32:35.871Z,6.48
2018-11-22T21:35:04.625Z,6.47
2018-11-22T21:37:32.831Z,6.44
2018-11-22T21:40:01.065Z,6.43
2018-11-22T21:42:29.367Z,6.41
2018-11-22T21:44:57.685Z,6.41
2018-11-22T21:47:25.919Z,6.35
2018-11-22T21:49:54.122Z,6.35
2018-11-22T21:52:22.371Z,6.34
2018-11-22T21:54:50.660Z,6.32
2018-11-22T21:57:18.909Z,6.30
2018-11-22T21:59:47.178Z,6.27
2018-11-22T22:02:15.511Z,6.26
2018-11-22T22:04:43.731Z,6.25
2018-11-22T22:07:12.043Z,6.24
2018-11-22T22:09:40.475Z,6.25
2018-11-22T22:12:09.887Z,6.24
2018-11-22T22:14:38.226Z,6.23
2018-11-22T22:17:06.438Z,6.20
2018-11-22T22:19:34.744Z,6.19
2018-11-22T22:22:03.070Z,6.19
2018-11-22T22:24:31.415Z,6.18
2018-11-22T22:26:59.608Z,6.17
2018-11-22T22:29:27.838Z,6.14
2018-11-22T22:31:56.363Z,6.14
2018-11-22T22:34:24.637Z,6.09
2018-11-22T22:36:52.871Z,6.09
2018-11-22T22:39:21.261Z,6.06
2018-11-22T22:41:49.504Z,6.03
2018-11-22T22:44:17.822Z,6.02
2018-11-22T22:46:46.234Z,5.99
2018-11-22T22:49:14.607Z,5.97
2018-11-22T22:51:42.950Z,5.96
2018-11-22T22:54:11.208Z,5.98
2018-11-22T22:56:39.714Z,5.98
2018-11-22T22:59:08.634Z,5.99
2018-11-22T23:01:36.967Z,5.99
2018-11-22T23:04:05.395Z,5.99
2018-11-22T23:06:33.763Z,5.98
2018-11-22T23:09:02.228Z,5.96
2018-11-22T23:11:30.697Z,5.95
2018-11-22T23:13:59.412Z,5.94
2018-11-22T23:16:27.657Z,5.94
2018-11-22T23:18:55.927Z,5.95
2018-11-22T23:21:24.987Z,5.95
2018-11-22T23:23:53.501Z,5.93
2018-11-22T23:26:21.743Z,5.91
2018-11-22T23:28:49.982Z,5.88
2018-11-22T23:31:18.227Z,5.87
2018-11-22T23:33:46.461Z,5.85
2018-11-22T23:36:14.764Z,5.81
2018-11-22T23:38:43.060Z,5.82
2018-11-22T23:41:11.303Z,5.81
2018-11-22T23:43:39.533Z,5.80
2018-11-22T23:46:07.959Z,5.80
2018-11-22T23:48:36.287Z,5.78
2018-11-22T23:51:04.899Z,5.76
2018-11-22T23:53:33.171Z,5.73
2018-11-22T23:56:01.446Z,5.73
2018-11-22T23:58:29.760Z,5.72
